createdAt,value
2019-03-05T00:01:52.659Z,5.71
2019-03-05T00:04:22.097Z,5.69
2019-03-05T00:06:51.569Z,5.68
2019-03-05T00:09:21.387Z,5.71
2019-03-05T00:11:50.849Z,5.63
2019-03-05T00:14:22.250Z,5.68
2019-03-05T00:16:51.722Z,5.70
2019-03-05T00:19:21.152Z,5.69
2019-03-05T00:21:50.771Z,5.70
2019-03-05T00:24:39.061Z,5.68
2019-03-05T00:27:08.512Z,5.66
2019-03-05T00:29:49.967Z,5.67
2019-03-05T00:32:19.409Z,5.57
2019-03-05T00:34:55.253Z,5.60
2019-03-05T00:37:31.044Z,5.58
2019-03-05T00:40:12.283Z,5.52
2019-03-05T00:43:09.055Z,5.40
2019-03-05T00:45:58.209Z,5.38
2019-03-05T00:48:30.851Z,5.45
2019-03-05T00:51:12.027Z,5.51
2019-03-05T00:53:53.578Z,5.48
2019-03-05T00:56:43.221Z,5.57
2019-03-05T00:59:33.139Z,5.51
2019-03-05T01:02:17.798Z,5.37
2019-03-05T01:05:00.888Z,5.30
2019-03-05T01:07:31.699Z,5.21
2019-03-05T01:10:01.188Z,5.27
2019-03-05T01:12:30.799Z,5.25
2019-03-05T01:15:00.409Z,5.19
2019-03-05T01:17:29.910Z,5.32
2019-03-05T01:19:59.338Z,5.25
2019-03-05T01:22:28.792Z,5.32
2019-03-05T01:24:58.391Z,5.33
2019-03-05T01:27:28.115Z,5.26
2019-03-05T01:29:57.576Z,5.28
2019-03-05T01:32:34.211Z,5.24
2019-03-05T01:35:06.682Z,5.20
2019-03-05T01:37:36.124Z,5.27
2019-03-05T01:40:09.048Z,5.25
2019-03-05T01:42:38.511Z,5.26
2019-03-05T01:45:10.783Z,5.31
2019-03-05T01:47:40.639Z,5.33
2019-03-05T01:50:11.119Z,5.38
2019-03-05T01:52:40.592Z,5.26
2019-03-05T01:55:10.284Z,5.27
2019-03-05T01:57:39.723Z,5.28
2019-03-05T02:00:11.855Z,5.32
2019-03-05T02:02:41.471Z,5.27
2019-03-05T02:05:11.483Z,5.28
2019-03-05T02:07:41.199Z,5.40
2019-03-05T02:10:20.471Z,5.46
2019-03-05T02:12:50.384Z,5.51
2019-03-05T02:15:20.012Z,5.58
2019-03-05T02:17:49.954Z,5.71
2019-03-05T02:20:24.554Z,5.64
2019-03-05T02:23:05.659Z,5.76
2019-03-05T02:25:38.590Z,5.80
2019-03-05T02:28:43.811Z,5.77
2019-03-05T02:31:16.482Z,5.88
2019-03-05T02:33:55.802Z,5.97
2019-03-05T02:36:48.427Z,6.05
2019-03-05T02:39:29.992Z,6.17
2019-03-05T02:42:14.836Z,6.21
2019-03-05T02:45:10.443Z,6.19
2019-03-05T02:48:03.389Z,6.24
2019-03-05T02:51:00.153Z,6.30
2019-03-05T02:53:35.485Z,6.23
2019-03-05T02:56:24.722Z,6.32
2019-03-05T02:58:53.195Z,6.35
2019-03-05T03:01:24.313Z,6.35
2019-03-05T03:03:55.385Z,6.35
2019-03-05T03:06:26.608Z,6.41
2019-03-05T03:08:59.232Z,6.51
2019-03-05T03:11:28.669Z,6.63
2019-03-05T03:13:58.114Z,6.77
2019-03-05T03:16:27.736Z,6.84
2019-03-05T03:18:57.167Z,6.86
2019-03-05T03:21:26.639Z,6.86
2019-03-05T03:23:56.118Z,6.85
2019-03-05T03:26:25.569Z,6.90
2019-03-05T03:28:55.025Z,6.93
2019-03-05T03:31:24.482Z,6.94
2019-03-05T03:33:53.931Z,6.94
2019-03-05T03:36:23.387Z,6.88
2019-03-05T03:38:52.822Z,6.84
2019-03-05T03:41:22.301Z,6.74
2019-03-05T03:43:51.727Z,6.66
2019-03-05T03:46:21.182Z,6.58
2019-03-05T03:48:50.616Z,6.48
2019-03-05T03:51:20.067Z,6.39
2019-03-05T03:53:49.544Z,6.37
2019-03-05T03:56:19.034Z,6.40
2019-03-05T03:58:48.451Z,6.37
2019-03-05T04:01:17.901Z,6.40
2019-03-05T04:03:47.359Z,6.39
2019-03-05T04:06:16.807Z,6.36
2019-03-05T04:08:46.235Z,6.35
2019-03-05T04:11:15.697Z,6.38
2019-03-05T04:13:45.138Z,6.39
2019-03-05T04:16:14.882Z,6.44
2019-03-05T04:18:44.323Z,6.37
2019-03-05T04:21:14.102Z,6.38
2019-03-05T04:23:43.548Z,6.34
2019-03-05T04:26:13.006Z,6.39
2019-03-05T04:28:42.452Z,6.37
2019-03-05T04:31:11.905Z,6.46
2019-03-05T04:33:41.344Z,6.60
2019-03-05T04:36:10.778Z,6.63
2019-03-05T04:38:40.506Z,6.67
2019-03-05T04:41:09.953Z,6.67
2019-03-05T04:43:39.442Z,6.58
2019-03-05T04:46:10.523Z,6.46
2019-03-05T04:48:40.429Z,6.53
2019-03-05T04:51:13.977Z,6.53
2019-03-05T04:53:43.429Z,6.52
2019-03-05T04:56:12.860Z,6.60
2019-03-05T04:58:42.322Z,6.48
2019-03-05T05:01:11.765Z,6.40
2019-03-05T05:03:41.222Z,6.42
2019-03-05T05:06:10.659Z,6.42
2019-03-05T05:08:40.102Z,6.37
2019-03-05T05:11:09.691Z,6.36
2019-03-05T05:13:39.165Z,6.33
2019-03-05T05:16:08.600Z,6.32
2019-03-05T05:18:38.071Z,6.29
2019-03-05T05:21:07.500Z,6.34
2019-03-05T05:23:36.962Z,6.24
2019-03-05T05:26:06.388Z,6.31
2019-03-05T05:28:35.845Z,6.28
2019-03-05T05:31:05.471Z,6.40
2019-03-05T05:33:34.929Z,6.36
2019-03-05T05:36:04.368Z,6.38
2019-03-05T05:38:33.811Z,6.49
2019-03-05T05:41:03.258Z,6.47
2019-03-05T05:43:33.179Z,6.54
2019-03-05T05:46:02.605Z,6.56
2019-03-05T05:48:32.078Z,6.58
2019-03-05T05:51:01.592Z,6.62
2019-03-05T05:53:31.043Z,6.62
2019-03-05T05:56:00.503Z,6.63
2019-03-05T05:58:29.949Z,6.62
2019-03-05T06:01:01.036Z,6.65
2019-03-05T06:03:30.766Z,6.66
2019-03-05T06:06:00.251Z,6.72
2019-03-05T06:08:29.664Z,6.76
2019-03-05T06:10:59.118Z,6.72
2019-03-05T06:13:28.552Z,6.74
2019-03-05T06:15:57.997Z,6.75
2019-03-05T06:18:27.431Z,6.73
2019-03-05T06:20:56.907Z,6.68
2019-03-05T06:23:26.353Z,6.75
2019-03-05T06:25:55.797Z,6.70
2019-03-05T06:28:25.230Z,6.64
2019-03-05T06:30:54.830Z,6.61
2019-03-05T06:33:24.311Z,6.66
2019-03-05T06:35:53.766Z,6.72
2019-03-05T06:38:23.210Z,6.71
2019-03-05T06:40:52.665Z,6.68
2019-03-05T06:43:22.101Z,6.73
2019-03-05T06:45:51.556Z,6.79
2019-03-05T06:48:21.113Z,6.81
2019-03-05T06:50:50.564Z,6.81
2019-03-05T06:53:20.021Z,6.91
2019-03-05T06:55:49.454Z,7.00
2019-03-05T06:58:18.931Z,7.17
2019-03-05T07:00:48.598Z,7.26
2019-03-05T07:03:18.141Z,7.32
2019-03-05T07:06:24.373Z,7.68
2019-03-05T07:09:00.176Z,8.53
2019-03-05T07:11:32.780Z,8.63
2019-03-05T07:14:14.571Z,8.64
2019-03-05T07:17:08.235Z,8.44
2019-03-05T07:19:43.517Z,8.03
2019-03-05T07:22:28.618Z,7.67
2019-03-05T07:24:58.071Z,7.82
2019-03-05T07:27:28.758Z,7.85
2019-03-05T07:30:01.696Z,8.06
2019-03-05T07:32:31.137Z,8.11
2019-03-05T07:35:00.597Z,8.03
2019-03-05T07:37:30.046Z,8.51
2019-03-05T07:39:59.493Z,9.62
2019-03-05T07:42:28.938Z,9.47
2019-03-05T07:44:58.389Z,8.63
2019-03-05T07:47:28.223Z,8.28
2019-03-05T07:49:57.694Z,9.35
2019-03-05T07:52:27.419Z,10.37
2019-03-05T07:54:57.225Z,11.41
2019-03-05T07:57:26.679Z,11.89
2019-03-05T07:59:56.430Z,12.41
2019-03-05T08:02:25.877Z,11.85
2019-03-05T08:04:55.320Z,12.87
2019-03-05T08:07:25.143Z,13.49
2019-03-05T08:09:56.431Z,13.81
2019-03-05T08:12:31.646Z,12.44
2019-03-05T08:15:22.338Z,11.13
2019-03-05T08:17:51.885Z,10.17
2019-03-05T08:20:21.332Z,10.12
2019-03-05T08:22:50.780Z,9.70
2019-03-05T08:25:20.249Z,9.27
2019-03-05T08:27:50.775Z,8.80
2019-03-05T08:30:20.286Z,8.53
2019-03-05T08:32:49.732Z,8.42
2019-03-05T08:35:19.220Z,8.86
2019-03-05T08:37:48.659Z,9.30
2019-03-05T08:40:18.112Z,10.76
2019-03-05T08:42:47.566Z,11.23
2019-03-05T08:45:28.447Z,11.22
2019-03-05T08:47:48.194Z,11.51
2019-03-05T08:50:17.648Z,12.21
2019-03-05T08:52:47.108Z,11.69
2019-03-05T08:55:16.576Z,11.76
2019-03-05T08:57:46.143Z,12.13
2019-03-05T09:00:20.712Z,10.93
2019-03-05T09:02:50.167Z,10.28
2019-03-05T09:05:20.187Z,10.02
2019-03-05T09:07:49.636Z,10.27
2019-03-05T09:10:24.362Z,10.71
2019-03-05T09:12:54.010Z,10.93
2019-03-05T09:15:23.613Z,12.34
2019-03-05T09:17:53.096Z,13.31
2019-03-05T09:20:22.913Z,13.48
2019-03-05T09:22:52.375Z,13.46
2019-03-05T09:25:21.820Z,12.89
2019-03-05T09:27:51.309Z,13.33
2019-03-05T09:30:22.652Z,11.97
2019-03-05T09:32:52.404Z,11.54
2019-03-05T09:35:21.862Z,11.45
2019-03-05T09:37:51.597Z,11.34
2019-03-05T09:40:26.430Z,10.50
2019-03-05T09:42:56.368Z,10.10
2019-03-05T09:45:28.084Z,9.65
2019-03-05T09:47:57.452Z,9.45
2019-03-05T09:50:27.059Z,9.40
2019-03-05T09:52:56.522Z,9.40
2019-03-05T09:55:26.697Z,9.24
2019-03-05T09:58:07.655Z,9.02
2019-03-05T10:00:28.551Z,8.75
2019-03-05T10:02:58.115Z,8.58
2019-03-05T10:05:27.531Z,8.64
2019-03-05T10:07:57.355Z,8.72
2019-03-05T10:10:28.142Z,8.74
2019-03-05T10:12:59.070Z,8.73
2019-03-05T10:15:29.418Z,8.70
2019-03-05T10:17:58.921Z,8.75
2019-03-05T10:20:30.442Z,8.87
2019-03-05T10:23:00.059Z,8.95
2019-03-05T10:25:29.664Z,9.04
2019-03-05T10:27:59.121Z,9.10
2019-03-05T10:30:56.408Z,9.26
2019-03-05T10:33:25.864Z,9.38
2019-03-05T10:35:55.303Z,9.52
2019-03-05T10:38:24.922Z,9.62
2019-03-05T10:40:57.143Z,9.79
2019-03-05T10:43:26.751Z,9.82
2019-03-05T10:45:56.208Z,9.80
2019-03-05T10:48:26.061Z,9.90
2019-03-05T10:50:55.805Z,9.96
2019-03-05T10:53:25.258Z,10.43
2019-03-05T10:55:54.707Z,10.58
2019-03-05T10:58:33.169Z,10.41
2019-03-05T11:00:58.306Z,10.47
2019-03-05T11:03:29.715Z,10.05
2019-03-05T11:05:59.549Z,9.62
2019-03-05T11:08:28.991Z,9.16
2019-03-05T11:10:59.818Z,8.89
2019-03-05T11:13:29.645Z,8.82
2019-03-05T11:16:04.020Z,8.97
2019-03-05T11:18:33.698Z,8.96
2019-03-05T11:21:03.134Z,9.14
2019-03-05T11:23:32.584Z,9.20
2019-03-05T11:26:02.035Z,9.08
2019-03-05T11:28:31.486Z,8.98
2019-03-05T11:31:01.087Z,8.81
2019-03-05T11:33:30.551Z,8.61
2019-03-05T11:36:00.003Z,8.35
2019-03-05T11:38:29.451Z,8.07
2019-03-05T11:40:59.344Z,8.14
2019-03-05T11:43:28.794Z,8.46
2019-03-05T11:45:58.399Z,8.81
2019-03-05T11:48:27.860Z,8.82
2019-03-05T11:50:57.592Z,8.76
2019-03-05T11:53:27.047Z,8.71
2019-03-05T11:55:56.804Z,8.61
2019-03-05T11:58:26.262Z,8.73
2019-03-05T12:01:00.275Z,8.81
2019-03-05T12:03:29.693Z,9.02
2019-03-05T12:05:59.434Z,9.02
2019-03-05T12:08:28.877Z,9.00
2019-03-05T12:10:58.333Z,8.84
2019-03-05T12:13:28.146Z,8.75
2019-03-05T12:15:57.829Z,8.50
2019-03-05T12:18:27.269Z,7.94
2019-03-05T12:20:57.450Z,7.28
2019-03-05T12:23:26.960Z,6.70
2019-03-05T12:25:56.406Z,5.81
2019-03-05T12:28:25.892Z,4.41
2019-03-05T12:30:55.340Z,4.06
2019-03-05T12:33:24.819Z,4.11
2019-03-05T12:35:54.522Z,4.13
2019-03-05T12:38:23.953Z,4.30
2019-03-05T12:40:53.414Z,4.40
2019-03-05T12:43:22.894Z,4.44
2019-03-05T12:45:52.363Z,4.52
2019-03-05T12:48:21.811Z,4.68
2019-03-05T12:50:51.488Z,4.83
2019-03-05T12:53:20.918Z,5.00
2019-03-05T12:55:50.542Z,5.09
2019-03-05T12:58:20.286Z,5.18
2019-03-05T13:00:49.748Z,5.19
2019-03-05T13:03:19.181Z,5.21
2019-03-05T13:05:48.623Z,5.23
2019-03-05T13:08:18.078Z,5.22
2019-03-05T13:10:47.523Z,5.20
2019-03-05T13:13:16.974Z,5.21
2019-03-05T13:15:46.724Z,5.27
2019-03-05T13:18:16.160Z,5.33
2019-03-05T13:20:45.601Z,5.42
2019-03-05T13:23:15.037Z,5.61
2019-03-05T13:25:44.495Z,5.69
2019-03-05T13:28:13.954Z,5.88
2019-03-05T13:30:43.497Z,5.99
2019-03-05T13:33:12.936Z,6.00
2019-03-05T13:35:42.390Z,6.02
2019-03-05T13:38:12.460Z,6.07
2019-03-05T13:40:41.954Z,6.10
2019-03-05T13:43:11.397Z,6.24
2019-03-05T13:45:43.819Z,6.35
2019-03-05T13:48:19.801Z,6.63
2019-03-05T13:51:06.683Z,6.71
2019-03-05T13:54:00.865Z,6.72
2019-03-05T13:57:00.922Z,6.68
2019-03-05T13:59:44.693Z,6.82
2019-03-05T14:02:16.853Z,7.06
2019-03-05T14:05:12.167Z,7.14
2019-03-05T14:08:01.451Z,7.18
2019-03-05T14:10:30.919Z,7.17
2019-03-05T14:13:00.382Z,7.02
2019-03-05T14:15:29.904Z,6.95
2019-03-05T14:17:59.329Z,6.86
2019-03-05T14:20:31.910Z,6.81
2019-03-05T14:23:00.201Z,6.74
2019-03-05T14:25:29.653Z,6.62
2019-03-05T14:27:59.101Z,6.65
2019-03-05T14:30:28.569Z,6.57
2019-03-05T14:33:00.779Z,6.42
2019-03-05T14:35:29.573Z,6.40
2019-03-05T14:37:59.434Z,6.34
2019-03-05T14:40:30.051Z,6.40
2019-03-05T14:42:59.693Z,6.61
2019-03-05T14:45:31.355Z,7.02
2019-03-05T14:48:01.075Z,7.32
2019-03-05T14:50:30.630Z,7.52
2019-03-05T14:53:00.426Z,7.77
2019-03-05T14:55:29.912Z,7.93
2019-03-05T14:57:59.355Z,8.22
2019-03-05T15:00:28.763Z,8.57
2019-03-05T15:02:58.330Z,8.80
2019-03-05T15:05:27.763Z,9.09
2019-03-05T15:07:57.391Z,9.38
2019-03-05T15:10:27.144Z,9.60
2019-03-05T15:12:56.615Z,10.16
2019-03-05T15:15:31.003Z,10.43
2019-03-05T15:18:00.484Z,10.38
2019-03-05T15:20:29.953Z,9.75
2019-03-05T15:22:59.393Z,9.60
2019-03-05T15:25:28.876Z,9.14
2019-03-05T15:27:58.330Z,8.54
2019-03-05T15:30:29.277Z,8.21
2019-03-05T15:32:58.859Z,7.99
2019-03-05T15:35:28.583Z,7.73
2019-03-05T15:37:58.057Z,7.67
2019-03-05T15:40:27.607Z,7.86
2019-03-05T15:42:57.078Z,8.48
2019-03-05T15:45:26.787Z,8.51
2019-03-05T15:47:56.237Z,8.71
2019-03-05T15:50:29.839Z,9.02
2019-03-05T15:52:59.744Z,8.98
2019-03-05T15:55:29.242Z,9.01
2019-03-05T15:57:58.695Z,8.69
2019-03-05T16:00:32.293Z,8.65
2019-03-05T16:03:02.072Z,8.24
2019-03-05T16:05:31.785Z,7.84
2019-03-05T16:08:01.567Z,7.77
2019-03-05T16:10:31.190Z,7.68
2019-03-05T16:13:00.663Z,7.71
2019-03-05T16:15:30.110Z,7.74
2019-03-05T16:18:04.606Z,7.60
2019-03-05T16:20:31.346Z,7.45
2019-03-05T16:23:00.784Z,7.38
2019-03-05T16:25:30.230Z,7.34
2019-03-05T16:28:02.244Z,7.20
2019-03-05T16:30:44.878Z,7.12
2019-03-05T16:33:28.237Z,7.07
2019-03-05T16:36:15.886Z,7.02
2019-03-05T16:38:46.980Z,7.03
2019-03-05T16:41:30.170Z,7.03
2019-03-05T16:44:10.530Z,6.97
2019-03-05T16:46:58.263Z,6.91
2019-03-05T16:49:44.351Z,6.90
2019-03-05T16:52:24.169Z,6.83
2019-03-05T16:55:07.482Z,6.76
2019-03-05T16:57:41.223Z,6.75
2019-03-05T17:00:19.571Z,6.65
2019-03-05T17:02:59.659Z,6.67
2019-03-05T17:05:39.652Z,6.65
2019-03-05T17:08:10.772Z,6.60
2019-03-05T17:10:47.852Z,6.57
2019-03-05T17:13:17.571Z,6.69
2019-03-05T17:15:47.040Z,6.60
2019-03-05T17:18:16.510Z,6.44
2019-03-05T17:20:45.961Z,6.33
2019-03-05T17:23:15.486Z,6.27
2019-03-05T17:25:44.926Z,6.19
2019-03-05T17:28:14.421Z,6.17
2019-03-05T17:30:43.972Z,6.08
2019-03-05T17:33:13.599Z,5.89
2019-03-05T17:35:43.041Z,5.69
2019-03-05T17:38:12.535Z,5.54
2019-03-05T17:40:41.993Z,5.42
2019-03-05T17:43:11.463Z,5.24
2019-03-05T17:45:40.983Z,5.10
2019-03-05T17:48:10.427Z,5.10
2019-03-05T17:50:40.182Z,4.99
2019-03-05T17:53:09.653Z,4.93
2019-03-05T17:55:39.086Z,4.90
2019-03-05T17:58:09.013Z,4.79
2019-03-05T18:00:40.099Z,4.72
2019-03-05T18:03:09.859Z,4.64
2019-03-05T18:05:39.438Z,4.64
2019-03-05T18:08:09.255Z,4.63
2019-03-05T18:10:39.015Z,4.61
2019-03-05T18:13:08.449Z,4.52
2019-03-05T18:15:38.323Z,4.42
2019-03-05T18:18:07.787Z,4.32
2019-03-05T18:20:37.531Z,4.19
2019-03-05T18:23:07.056Z,4.03
2019-03-05T18:25:36.587Z,3.90
2019-03-05T18:28:06.041Z,3.79
2019-03-05T18:30:35.527Z,3.74
2019-03-05T18:33:04.962Z,3.71
2019-03-05T18:35:34.444Z,3.69
2019-03-05T18:38:03.912Z,3.60
2019-03-05T18:40:33.428Z,3.54
2019-03-05T18:43:03.410Z,3.53
2019-03-05T18:45:35.469Z,3.62
2019-03-05T18:48:05.309Z,3.62
2019-03-05T18:50:34.723Z,3.66
2019-03-05T18:53:05.404Z,3.64
2019-03-05T18:55:34.860Z,3.63
2019-03-05T18:58:04.299Z,3.86
2019-03-05T19:00:34.701Z,3.95
2019-03-05T19:03:11.851Z,4.13
2019-03-05T19:05:41.381Z,4.22
2019-03-05T19:08:10.863Z,4.26
2019-03-05T19:10:40.871Z,4.11
2019-03-05T19:13:10.318Z,4.04
2019-03-05T19:15:39.985Z,3.94
2019-03-05T19:18:09.488Z,3.88
2019-03-05T19:20:38.965Z,3.86
2019-03-05T19:23:08.420Z,3.79
2019-03-05T19:25:45.960Z,3.63
2019-03-05T19:28:15.708Z,3.59
2019-03-05T19:30:52.551Z,3.49
2019-03-05T19:33:22.290Z,3.50
2019-03-05T19:35:51.744Z,3.50
2019-03-05T19:38:21.456Z,3.47
2019-03-05T19:40:50.986Z,3.45
2019-03-05T19:43:20.425Z,3.47
2019-03-05T19:45:49.867Z,3.42
2019-03-05T19:48:19.739Z,3.42
2019-03-05T19:50:49.475Z,3.51
2019-03-05T19:53:18.924Z,3.58
2019-03-05T19:55:48.402Z,3.52
2019-03-05T19:58:17.852Z,3.61
2019-03-05T20:00:51.132Z,3.61
2019-03-05T20:03:20.578Z,3.56
2019-03-05T20:05:50.041Z,3.52
2019-03-05T20:08:19.499Z,3.46
2019-03-05T20:10:48.946Z,3.49
2019-03-05T20:13:18.780Z,3.55
2019-03-05T20:15:48.243Z,3.51
2019-03-05T20:18:17.719Z,3.50
2019-03-05T20:20:47.170Z,3.46
2019-03-05T20:23:16.605Z,3.46
2019-03-05T20:25:46.061Z,3.56
2019-03-05T20:28:15.525Z,3.50
2019-03-05T20:30:45.102Z,3.63
2019-03-05T20:33:14.828Z,3.56
2019-03-05T20:35:44.421Z,3.56
2019-03-05T20:38:13.867Z,3.44
2019-03-05T20:40:43.576Z,3.47
2019-03-05T20:43:13.044Z,3.42
2019-03-05T20:45:48.401Z,3.35
2019-03-05T20:48:18.147Z,3.46
2019-03-05T20:50:47.582Z,3.37
2019-03-05T20:53:17.027Z,3.36
2019-03-05T20:55:46.508Z,3.45
2019-03-05T20:58:16.275Z,3.37
2019-03-05T21:00:45.855Z,3.34
2019-03-05T21:03:15.285Z,3.43
2019-03-05T21:05:48.465Z,3.29
2019-03-05T21:08:17.913Z,3.27
2019-03-05T21:10:48.292Z,3.37
2019-03-05T21:13:17.737Z,3.24
2019-03-05T21:15:47.226Z,3.27
2019-03-05T21:18:19.533Z,3.17
2019-03-05T21:20:49.270Z,3.14
2019-03-05T21:23:19.930Z,3.08
2019-03-05T21:25:49.327Z,3.08
2019-03-05T21:28:18.767Z,3.04
2019-03-05T21:30:48.250Z,2.98
2019-03-05T21:33:23.783Z,3.12
2019-03-05T21:35:53.618Z,3.12
2019-03-05T21:38:25.284Z,3.12
2019-03-05T21:40:54.734Z,3.12
2019-03-05T21:43:25.198Z,3.13
2019-03-05T21:46:10.864Z,3.13
2019-03-05T21:48:40.694Z,3.22
2019-03-05T21:51:10.140Z,3.21
2019-03-05T21:53:39.755Z,3.15
2019-03-05T21:56:09.221Z,3.12
2019-03-05T21:58:38.661Z,3.11
2019-03-05T22:01:08.102Z,3.06
2019-03-05T22:03:37.545Z,3.05
2019-03-05T22:06:07.079Z,2.87
2019-03-05T22:08:36.529Z,2.87
2019-03-05T22:11:05.974Z,2.86
2019-03-05T22:13:35.450Z,2.86
2019-03-05T22:16:04.966Z,2.76
2019-03-05T22:18:34.412Z,2.72
2019-03-05T22:21:03.865Z,2.75
2019-03-05T22:23:33.312Z,2.74
2019-03-05T22:26:02.756Z,2.70
2019-03-05T22:28:32.212Z,2.76
2019-03-05T22:31:01.653Z,2.93
2019-03-05T22:33:31.117Z,2.82
2019-03-05T22:36:00.581Z,2.92
2019-03-05T22:38:30.020Z,2.98
2019-03-05T22:40:59.475Z,3.04
2019-03-05T22:43:28.934Z,3.17
2019-03-05T22:45:58.388Z,3.19
2019-03-05T22:48:28.143Z,3.55
2019-03-05T22:50:57.842Z,3.67
2019-03-05T22:53:27.559Z,3.62
2019-03-05T22:55:57.009Z,3.58
2019-03-05T22:58:26.449Z,3.55
2019-03-05T23:01:02.733Z,3.64
2019-03-05T23:03:32.660Z,3.69
2019-03-05T23:06:05.117Z,3.80
2019-03-05T23:08:34.556Z,3.79
2019-03-05T23:11:04.310Z,3.82
2019-03-05T23:13:34.249Z,3.77
2019-03-05T23:16:03.784Z,3.76
2019-03-05T23:18:33.220Z,3.79
2019-03-05T23:21:02.650Z,3.84
2019-03-05T23:23:32.092Z,3.76
2019-03-05T23:26:01.601Z,3.70
2019-03-05T23:28:31.061Z,3.69
2019-03-05T23:31:00.502Z,3.76
2019-03-05T23:33:29.956Z,3.68
2019-03-05T23:35:59.623Z,3.60
2019-03-05T23:38:29.102Z,3.78
2019-03-05T23:40:58.560Z,3.80
2019-03-05T23:43:28.004Z,3.89
2019-03-05T23:45:57.439Z,3.82
2019-03-05T23:48:26.880Z,3.84
2019-03-05T23:50:56.323Z,3.79
2019-03-05T23:53:25.848Z,3.77
2019-03-05T23:55:55.298Z,3.73
2019-03-05T23:58:24.742Z,3.84
